sensor_id;sensor_type;location;lat;lon;timestamp;P1;durP1;ratioP1;P2;durP2;ratioP2
68910;SDS011;55953;51.650;-0.522;2023-03-31T00:01:12;11.70;;;2.20;;
68910;SDS011;55953;51.650;-0.522;2023-03-31T00:03:40;10.80;;;2.10;;
68910;SDS011;55953;51.650;-0.522;2023-03-31T00:06:12;13.70;;;2.00;;
68910;SDS011;55953;51.650;-0.522;2023-03-31T00:08:46;10.60;;;1.60;;
68910;SDS011;55953;51.650;-0.522;2023-03-31T00:11:20;15.20;;;2.10;;
68910;SDS011;55953;51.650;-0.522;2023-03-31T00:13:49;13.20;;;2.10;;
68910;SDS011;55953;51.650;-0.522;2023-03-31T00:16:17;13.40;;;2.00;;
68910;SDS011;55953;51.650;-0.522;2023-03-31T00:18:45;12.70;;;1.90;;
68910;SDS011;55953;51.650;-0.522;2023-03-31T00:21:16;14.30;;;1.90;;
68910;SDS011;55953;51.650;-0.522;2023-03-31T00:23:59;16.20;;;2.70;;
68910;SDS011;55953;51.650;-0.522;2023-03-31T00:26:29;19.20;;;3.20;;
68910;SDS011;55953;51.650;-0.522;2023-03-31T00:28:58;11.50;;;2.70;;
68910;SDS011;55953;51.650;-0.522;2023-03-31T00:31:27;13.00;;;2.50;;
68910;SDS011;55953;51.650;-0.522;2023-03-31T00:33:56;15.80;;;2.10;;
68910;SDS011;55953;51.650;-0.522;2023-03-31T00:36:24;16.40;;;1.90;;
68910;SDS011;55953;51.650;-0.522;2023-03-31T00:38:59;13.40;;;2.10;;
68910;SDS011;55953;51.650;-0.522;2023-03-31T00:41:29;18.50;;;2.50;;
68910;SDS011;55953;51.650;-0.522;2023-03-31T00:44:16;16.30;;;2.80;;
68910;SDS011;55953;51.650;-0.522;2023-03-31T00:47:03;13.40;;;2.50;;
68910;SDS011;55953;51.650;-0.522;2023-03-31T00:49:45;13.00;;;1.90;;
68910;SDS011;55953;51.650;-0.522;2023-03-31T00:52:20;10.50;;;2.20;;
68910;SDS011;55953;51.650;-0.522;2023-03-31T00:55:00;7.70;;;1.50;;
68910;SDS011;55953;51.650;-0.522;2023-03-31T00:57:35;9.50;;;2.10;;
68910;SDS011;55953;51.650;-0.522;2023-03-31T01:00:10;9.00;;;1.90;;
68910;SDS011;55953;51.650;-0.522;2023-03-31T01:02:45;12.40;;;1.80;;
68910;SDS011;55953;51.650;-0.522;2023-03-31T01:05:38;9.10;;;1.80;;
68910;SDS011;55953;51.650;-0.522;2023-03-31T01:08:11;13.40;;;1.80;;
68910;SDS011;55953;51.650;-0.522;2023-03-31T01:10:48;10.10;;;1.50;;
68910;SDS011;55953;51.650;-0.522;2023-03-31T01:13:21;9.50;;;1.60;;
68910;SDS011;55953;51.650;-0.522;2023-03-31T01:15:51;8.90;;;1.50;;
68910;SDS011;55953;51.650;-0.522;2023-03-31T01:18:20;10.80;;;2.00;;
68910;SDS011;55953;51.650;-0.522;2023-03-31T01:24:21;7.90;;;1.40;;
68910;SDS011;55953;51.650;-0.522;2023-03-31T01:30:02;9.10;;;1.70;;
68910;SDS011;55953;51.650;-0.522;2023-03-31T01:33:09;11.10;;;1.40;;
68910;SDS011;55953;51.650;-0.522;2023-03-31T01:49:31;7.00;;;1.50;;
68910;SDS011;55953;51.650;-0.522;2023-03-31T01:53:28;5.40;;;1.60;;
68910;SDS011;55953;51.650;-0.522;2023-03-31T01:56:07;7.10;;;1.30;;
68910;SDS011;55953;51.650;-0.522;2023-03-31T01:58:55;8.30;;;1.20;;
68910;SDS011;55953;51.650;-0.522;2023-03-31T02:04:26;6.50;;;1.10;;
68910;SDS011;55953;51.650;-0.522;2023-03-31T02:07:02;5.20;;;1.10;;
68910;SDS011;55953;51.650;-0.522;2023-03-31T02:09:37;6.70;;;1.40;;
68910;SDS011;55953;51.650;-0.522;2023-03-31T02:12:10;6.20;;;1.20;;
68910;SDS011;55953;51.650;-0.522;2023-03-31T02:14:42;5.30;;;1.10;;
68910;SDS011;55953;51.650;-0.522;2023-03-31T02:17:18;5.30;;;1.40;;
68910;SDS011;55953;51.650;-0.522;2023-03-31T02:20:01;3.40;;;1.10;;
68910;SDS011;55953;51.650;-0.522;2023-03-31T02:22:35;7.60;;;1.50;;
68910;SDS011;55953;51.650;-0.522;2023-03-31T02:25:09;3.70;;;1.10;;
68910;SDS011;55953;51.650;-0.522;2023-03-31T02:27:42;4.40;;;1.30;;
68910;SDS011;55953;51.650;-0.522;2023-03-31T02:30:14;7.20;;;1.20;;
68910;SDS011;55953;51.650;-0.522;2023-03-31T02:32:44;4.80;;;1.20;;
68910;SDS011;55953;51.650;-0.522;2023-03-31T02:37:45;5.00;;;1.30;;
68910;SDS011;55953;51.650;-0.522;2023-03-31T02:40:19;5.00;;;1.30;;
68910;SDS011;55953;51.650;-0.522;2023-03-31T02:42:49;7.10;;;1.50;;
68910;SDS011;55953;51.650;-0.522;2023-03-31T02:45:42;9.40;;;1.70;;
68910;SDS011;55953;51.650;-0.522;2023-03-31T02:48:18;6.10;;;1.40;;
68910;SDS011;55953;51.650;-0.522;2023-03-31T03:03:04;10.60;;;1.80;;
68910;SDS011;55953;51.650;-0.522;2023-03-31T03:11:50;11.60;;;2.10;;
68910;SDS011;55953;51.650;-0.522;2023-03-31T03:17:45;13.20;;;2.60;;
68910;SDS011;55953;51.650;-0.522;2023-03-31T03:20:18;12.60;;;1.90;;
68910;SDS011;55953;51.650;-0.522;2023-03-31T03:22:46;13.10;;;2.20;;
68910;SDS011;55953;51.650;-0.522;2023-03-31T03:25:15;9.80;;;2.20;;
68910;SDS011;55953;51.650;-0.522;2023-03-31T03:27:47;13.20;;;2.30;;
68910;SDS011;55953;51.650;-0.522;2023-03-31T03:30:15;12.40;;;1.80;;
68910;SDS011;55953;51.650;-0.522;2023-03-31T03:32:43;13.00;;;1.90;;
68910;SDS011;55953;51.650;-0.522;2023-03-31T03:35:11;13.10;;;2.20;;
68910;SDS011;55953;51.650;-0.522;2023-03-31T03:37:39;13.10;;;2.10;;
68910;SDS011;55953;51.650;-0.522;2023-03-31T03:40:07;10.50;;;2.00;;
68910;SDS011;55953;51.650;-0.522;2023-03-31T03:42:37;14.20;;;2.40;;
68910;SDS011;55953;51.650;-0.522;2023-03-31T03:45:05;15.70;;;2.10;;
68910;SDS011;55953;51.650;-0.522;2023-03-31T03:47:34;14.60;;;2.00;;
68910;SDS011;55953;51.650;-0.522;2023-03-31T03:50:03;12.30;;;2.40;;
68910;SDS011;55953;51.650;-0.522;2023-03-31T03:52:32;11.60;;;2.10;;
68910;SDS011;55953;51.650;-0.522;2023-03-31T03:55:00;16.50;;;2.00;;
68910;SDS011;55953;51.650;-0.522;2023-03-31T03:57:28;12.60;;;2.20;;
68910;SDS011;55953;51.650;-0.522;2023-03-31T03:59:56;15.20;;;3.40;;
68910;SDS011;55953;51.650;-0.522;2023-03-31T04:02:24;12.50;;;2.10;;
68910;SDS011;55953;51.650;-0.522;2023-03-31T04:04:55;12.90;;;3.00;;
68910;SDS011;55953;51.650;-0.522;2023-03-31T04:07:23;11.90;;;2.90;;
68910;SDS011;55953;51.650;-0.522;2023-03-31T04:09:50;13.70;;;2.40;;
68910;SDS011;55953;51.650;-0.522;2023-03-31T04:12:18;11.60;;;2.10;;
68910;SDS011;55953;51.650;-0.522;2023-03-31T04:14:46;15.30;;;2.70;;
68910;SDS011;55953;51.650;-0.522;2023-03-31T04:17:14;15.50;;;2.80;;
68910;SDS011;55953;51.650;-0.522;2023-03-31T04:19:42;19.70;;;3.40;;
68910;SDS011;55953;51.650;-0.522;2023-03-31T04:22:10;13.20;;;2.20;;
68910;SDS011;55953;51.650;-0.522;2023-03-31T04:24:41;17.90;;;2.80;;
68910;SDS011;55953;51.650;-0.522;2023-03-31T04:27:12;16.70;;;3.20;;
68910;SDS011;55953;51.650;-0.522;2023-03-31T04:32:14;13.10;;;2.70;;
68910;SDS011;55953;51.650;-0.522;2023-03-31T04:34:48;16.50;;;2.70;;
68910;SDS011;55953;51.650;-0.522;2023-03-31T04:37:29;13.70;;;2.40;;
68910;SDS011;55953;51.650;-0.522;2023-03-31T04:40:01;14.70;;;2.80;;
68910;SDS011;55953;51.650;-0.522;2023-03-31T04:42:36;15.80;;;2.80;;
68910;SDS011;55953;51.650;-0.522;2023-03-31T04:45:04;15.40;;;2.50;;
68910;SDS011;55953;51.650;-0.522;2023-03-31T04:47:32;19.40;;;2.40;;
68910;SDS011;55953;51.650;-0.522;2023-03-31T04:50:00;19.00;;;2.80;;
68910;SDS011;55953;51.650;-0.522;2023-03-31T04:52:28;19.50;;;3.00;;
68910;SDS011;55953;51.650;-0.522;2023-03-31T04:54:56;16.20;;;2.40;;
68910;SDS011;55953;51.650;-0.522;2023-03-31T04:57:24;16.70;;;3.00;;
68910;SDS011;55953;51.650;-0.522;2023-03-31T04:59:51;20.20;;;3.00;;
68910;SDS011;55953;51.650;-0.522;2023-03-31T05:02:20;17.70;;;3.10;;
68910;SDS011;55953;51.650;-0.522;2023-03-31T05:04:52;15.10;;;2.30;;
68910;SDS011;55953;51.650;-0.522;2023-03-31T05:07:19;19.90;;;2.70;;
68910;SDS011;55953;51.650;-0.522;2023-03-31T05:09:47;16.80;;;3.50;;
68910;SDS011;55953;51.650;-0.522;2023-03-31T05:12:15;10.90;;;2.00;;
68910;SDS011;55953;51.650;-0.522;2023-03-31T05:14:43;11.20;;;2.10;;
68910;SDS011;55953;51.650;-0.522;2023-03-31T05:17:11;16.00;;;3.00;;
68910;SDS011;55953;51.650;-0.522;2023-03-31T05:19:39;8.90;;;2.00;;
68910;SDS011;55953;51.650;-0.522;2023-03-31T05:22:07;15.50;;;2.70;;
68910;SDS011;55953;51.650;-0.522;2023-03-31T05:24:34;12.40;;;1.80;;
68910;SDS011;55953;51.650;-0.522;2023-03-31T05:27:02;13.20;;;1.70;;
68910;SDS011;55953;51.650;-0.522;2023-03-31T05:29:30;12.50;;;2.20;;
68910;SDS011;55953;51.650;-0.522;2023-03-31T05:31:58;13.10;;;2.30;;
68910;SDS011;55953;51.650;-0.522;2023-03-31T05:34:26;10.60;;;2.20;;
68910;SDS011;55953;51.650;-0.522;2023-03-31T05:36:54;12.60;;;2.20;;
68910;SDS011;55953;51.650;-0.522;2023-03-31T05:39:22;13.10;;;2.50;;
68910;SDS011;55953;51.650;-0.522;2023-03-31T05:41:50;10.80;;;3.30;;
68910;SDS011;55953;51.650;-0.522;2023-03-31T05:44:18;13.30;;;3.50;;
68910;SDS011;55953;51.650;-0.522;2023-03-31T05:46:47;15.50;;;3.60;;
68910;SDS011;55953;51.650;-0.522;2023-03-31T05:49:15;13.80;;;2.90;;
68910;SDS011;55953;51.650;-0.522;2023-03-31T05:51:44;14.40;;;3.00;;
68910;SDS011;55953;51.650;-0.522;2023-03-31T05:54:12;10.70;;;2.20;;
68910;SDS011;55953;51.650;-0.522;2023-03-31T05:56:40;11.60;;;2.30;;
68910;SDS011;55953;51.650;-0.522;2023-03-31T05:59:08;6.70;;;1.80;;
68910;SDS011;55953;51.650;-0.522;2023-03-31T06:01:36;11.00;;;3.00;;
68910;SDS011;55953;51.650;-0.522;2023-03-31T06:04:04;9.10;;;2.20;;
68910;SDS011;55953;51.650;-0.522;2023-03-31T06:06:32;11.00;;;2.50;;
68910;SDS011;55953;51.650;-0.522;2023-03-31T06:09:04;10.00;;;2.60;;
68910;SDS011;55953;51.650;-0.522;2023-03-31T06:11:33;9.50;;;2.10;;
68910;SDS011;55953;51.650;-0.522;2023-03-31T06:14:01;7.20;;;1.30;;
68910;SDS011;55953;51.650;-0.522;2023-03-31T06:16:29;9.70;;;1.90;;
68910;SDS011;55953;51.650;-0.522;2023-03-31T06:18:57;9.40;;;1.80;;
68910;SDS011;55953;51.650;-0.522;2023-03-31T06:21:24;9.30;;;2.10;;
68910;SDS011;55953;51.650;-0.522;2023-03-31T06:23:52;7.90;;;1.40;;
68910;SDS011;55953;51.650;-0.522;2023-03-31T06:26:22;8.20;;;1.80;;
68910;SDS011;55953;51.650;-0.522;2023-03-31T06:28:50;8.80;;;1.50;;
68910;SDS011;55953;51.650;-0.522;2023-03-31T06:31:21;8.20;;;1.40;;
68910;SDS011;55953;51.650;-0.522;2023-03-31T06:33:51;5.70;;;1.00;;
68910;SDS011;55953;51.650;-0.522;2023-03-31T06:36:21;7.50;;;1.50;;
68910;SDS011;55953;51.650;-0.522;2023-03-31T06:38:49;6.30;;;1.60;;
68910;SDS011;55953;51.650;-0.522;2023-03-31T06:41:18;6.70;;;1.70;;
68910;SDS011;55953;51.650;-0.522;2023-03-31T06:43:47;7.10;;;1.30;;
68910;SDS011;55953;51.650;-0.522;2023-03-31T06:46:16;11.10;;;1.70;;
68910;SDS011;55953;51.650;-0.522;2023-03-31T06:48:45;10.50;;;1.60;;
68910;SDS011;55953;51.650;-0.522;2023-03-31T06:51:13;9.90;;;1.70;;
68910;SDS011;55953;51.650;-0.522;2023-03-31T06:53:42;9.50;;;1.60;;
68910;SDS011;55953;51.650;-0.522;2023-03-31T06:56:10;9.50;;;1.80;;
68910;SDS011;55953;51.650;-0.522;2023-03-31T06:58:38;9.90;;;2.00;;
68910;SDS011;55953;51.650;-0.522;2023-03-31T07:01:06;6.80;;;1.40;;
68910;SDS011;55953;51.650;-0.522;2023-03-31T07:03:34;7.00;;;1.60;;
68910;SDS011;55953;51.650;-0.522;2023-03-31T07:06:02;7.60;;;1.70;;
68910;SDS011;55953;51.650;-0.522;2023-03-31T07:08:31;11.90;;;1.60;;
68910;SDS011;55953;51.650;-0.522;2023-03-31T07:10:59;11.70;;;1.90;;
68910;SDS011;55953;51.650;-0.522;2023-03-31T07:13:27;8.70;;;2.00;;
68910;SDS011;55953;51.650;-0.522;2023-03-31T07:15:56;6.40;;;1.40;;
68910;SDS011;55953;51.650;-0.522;2023-03-31T07:18:24;11.30;;;1.90;;
68910;SDS011;55953;51.650;-0.522;2023-03-31T07:20:53;13.30;;;2.40;;
68910;SDS011;55953;51.650;-0.522;2023-03-31T07:23:20;11.50;;;2.40;;
68910;SDS011;55953;51.650;-0.522;2023-03-31T07:25:48;14.10;;;2.20;;
68910;SDS011;55953;51.650;-0.522;2023-03-31T07:28:16;11.80;;;2.10;;
68910;SDS011;55953;51.650;-0.522;2023-03-31T07:30:44;14.20;;;2.40;;
68910;SDS011;55953;51.650;-0.522;2023-03-31T07:33:12;13.70;;;2.30;;
68910;SDS011;55953;51.650;-0.522;2023-03-31T07:35:40;9.20;;;1.70;;
68910;SDS011;55953;51.650;-0.522;2023-03-31T07:38:09;13.00;;;2.10;;
68910;SDS011;55953;51.650;-0.522;2023-03-31T07:40:39;9.80;;;1.60;;
68910;SDS011;55953;51.650;-0.522;2023-03-31T07:43:08;11.40;;;2.20;;
68910;SDS011;55953;51.650;-0.522;2023-03-31T07:45:38;13.70;;;3.10;;
68910;SDS011;55953;51.650;-0.522;2023-03-31T07:48:06;9.10;;;1.80;;
68910;SDS011;55953;51.650;-0.522;2023-03-31T07:50:34;10.40;;;2.10;;
68910;SDS011;55953;51.650;-0.522;2023-03-31T07:53:09;14.60;;;2.20;;
68910;SDS011;55953;51.650;-0.522;2023-03-31T07:55:37;12.20;;;2.10;;
68910;SDS011;55953;51.650;-0.522;2023-03-31T07:58:05;12.70;;;2.30;;
68910;SDS011;55953;51.650;-0.522;2023-03-31T08:00:33;12.00;;;2.20;;
68910;SDS011;55953;51.650;-0.522;2023-03-31T08:03:01;9.90;;;1.70;;
68910;SDS011;55953;51.650;-0.522;2023-03-31T08:05:29;15.20;;;3.00;;
68910;SDS011;55953;51.650;-0.522;2023-03-31T08:07:57;11.80;;;2.50;;
68910;SDS011;55953;51.650;-0.522;2023-03-31T08:10:25;14.30;;;2.70;;
68910;SDS011;55953;51.650;-0.522;2023-03-31T08:12:54;13.60;;;2.30;;
68910;SDS011;55953;51.650;-0.522;2023-03-31T08:15:22;13.80;;;2.00;;
68910;SDS011;55953;51.650;-0.522;2023-03-31T08:17:51;13.30;;;2.40;;
68910;SDS011;55953;51.650;-0.522;2023-03-31T08:20:18;12.20;;;2.50;;
68910;SDS011;55953;51.650;-0.522;2023-03-31T08:22:46;9.00;;;2.00;;
68910;SDS011;55953;51.650;-0.522;2023-03-31T08:25:14;14.50;;;2.50;;
68910;SDS011;55953;51.650;-0.522;2023-03-31T08:27:43;15.50;;;2.20;;
68910;SDS011;55953;51.650;-0.522;2023-03-31T08:30:11;12.30;;;2.10;;
68910;SDS011;55953;51.650;-0.522;2023-03-31T08:32:39;12.40;;;2.40;;
68910;SDS011;55953;51.650;-0.522;2023-03-31T08:35:08;8.70;;;2.40;;
68910;SDS011;55953;51.650;-0.522;2023-03-31T08:37:37;12.10;;;2.00;;
68910;SDS011;55953;51.650;-0.522;2023-03-31T08:40:06;8.70;;;2.00;;
68910;SDS011;55953;51.650;-0.522;2023-03-31T08:42:49;15.60;;;2.70;;
68910;SDS011;55953;51.650;-0.522;2023-03-31T08:45:31;12.60;;;2.00;;
68910;SDS011;55953;51.650;-0.522;2023-03-31T08:48:23;9.00;;;1.80;;
68910;SDS011;55953;51.650;-0.522;2023-03-31T08:51:12;8.80;;;1.70;;
68910;SDS011;55953;51.650;-0.522;2023-03-31T08:53:58;10.00;;;1.70;;
68910;SDS011;55953;51.650;-0.522;2023-03-31T08:56:39;8.80;;;1.70;;
68910;SDS011;55953;51.650;-0.522;2023-03-31T09:02:22;8.30;;;1.60;;
68910;SDS011;55953;51.650;-0.522;2023-03-31T09:08:00;8.80;;;1.70;;
68910;SDS011;55953;51.650;-0.522;2023-03-31T09:11:29;8.50;;;1.60;;
68910;SDS011;55953;51.650;-0.522;2023-03-31T09:14:20;10.10;;;1.90;;
68910;SDS011;55953;51.650;-0.522;2023-03-31T09:22:40;7.30;;;1.60;;
68910;SDS011;55953;51.650;-0.522;2023-03-31T09:25:22;8.10;;;1.60;;
68910;SDS011;55953;51.650;-0.522;2023-03-31T09:27:56;8.30;;;1.30;;
68910;SDS011;55953;51.650;-0.522;2023-03-31T09:30:29;11.20;;;1.90;;
68910;SDS011;55953;51.650;-0.522;2023-03-31T09:33:28;7.90;;;1.80;;
68910;SDS011;55953;51.650;-0.522;2023-03-31T09:36:00;3.40;;;1.20;;
68910;SDS011;55953;51.650;-0.522;2023-03-31T09:38:33;5.90;;;1.10;;
68910;SDS011;55953;51.650;-0.522;2023-03-31T09:41:02;3.80;;;1.10;;
68910;SDS011;55953;51.650;-0.522;2023-03-31T09:43:32;3.30;;;1.10;;
68910;SDS011;55953;51.650;-0.522;2023-03-31T09:46:28;3.40;;;0.90;;
68910;SDS011;55953;51.650;-0.522;2023-03-31T09:49:02;5.20;;;1.00;;
68910;SDS011;55953;51.650;-0.522;2023-03-31T09:51:34;4.20;;;1.00;;
68910;SDS011;55953;51.650;-0.522;2023-03-31T09:54:27;3.00;;;0.90;;
68910;SDS011;55953;51.650;-0.522;2023-03-31T10:00:15;2.10;;;0.70;;
68910;SDS011;55953;51.650;-0.522;2023-03-31T10:02:52;2.50;;;0.70;;
68910;SDS011;55953;51.650;-0.522;2023-03-31T10:05:34;3.60;;;1.00;;
68910;SDS011;55953;51.650;-0.522;2023-03-31T10:10:43;2.20;;;0.50;;
68910;SDS011;55953;51.650;-0.522;2023-03-31T10:13:19;1.40;;;0.80;;
68910;SDS011;55953;51.650;-0.522;2023-03-31T10:16:00;3.60;;;0.70;;
68910;SDS011;55953;51.650;-0.522;2023-03-31T10:18:35;1.30;;;0.60;;
68910;SDS011;55953;51.650;-0.522;2023-03-31T10:21:14;2.30;;;0.60;;
68910;SDS011;55953;51.650;-0.522;2023-03-31T10:23:48;1.80;;;0.60;;
68910;SDS011;55953;51.650;-0.522;2023-03-31T10:26:20;1.70;;;0.60;;
68910;SDS011;55953;51.650;-0.522;2023-03-31T10:28:53;2.10;;;0.80;;
68910;SDS011;55953;51.650;-0.522;2023-03-31T10:31:26;2.00;;;1.00;;
68910;SDS011;55953;51.650;-0.522;2023-03-31T10:34:05;3.30;;;0.80;;
68910;SDS011;55953;51.650;-0.522;2023-03-31T10:36:36;2.20;;;0.90;;
68910;SDS011;55953;51.650;-0.522;2023-03-31T10:39:05;3.40;;;1.00;;
68910;SDS011;55953;51.650;-0.522;2023-03-31T10:41:34;1.20;;;0.60;;
68910;SDS011;55953;51.650;-0.522;2023-03-31T10:44:03;1.40;;;0.70;;
68910;SDS011;55953;51.650;-0.522;2023-03-31T10:49:42;2.30;;;0.60;;
68910;SDS011;55953;51.650;-0.522;2023-03-31T10:54:57;0.70;;;0.60;;
68910;SDS011;55953;51.650;-0.522;2023-03-31T10:57:54;1.40;;;0.60;;
68910;SDS011;55953;51.650;-0.522;2023-03-31T11:00:31;1.80;;;0.70;;
68910;SDS011;55953;51.650;-0.522;2023-03-31T11:03:31;0.90;;;0.60;;
68910;SDS011;55953;51.650;-0.522;2023-03-31T11:06:16;1.30;;;0.60;;
68910;SDS011;55953;51.650;-0.522;2023-03-31T11:12:05;2.00;;;0.60;;
68910;SDS011;55953;51.650;-0.522;2023-03-31T11:23:33;1.30;;;0.70;;
68910;SDS011;55953;51.650;-0.522;2023-03-31T11:29:16;1.00;;;0.70;;
68910;SDS011;55953;51.650;-0.522;2023-03-31T11:32:22;1.50;;;0.80;;
68910;SDS011;55953;51.650;-0.522;2023-03-31T11:41:18;1.50;;;0.70;;
68910;SDS011;55953;51.650;-0.522;2023-03-31T11:43:52;3.00;;;0.80;;
68910;SDS011;55953;51.650;-0.522;2023-03-31T11:46:31;1.70;;;0.60;;
68910;SDS011;55953;51.650;-0.522;2023-03-31T11:49:23;0.80;;;0.40;;
68910;SDS011;55953;51.650;-0.522;2023-03-31T11:55:00;1.20;;;0.50;;
68910;SDS011;55953;51.650;-0.522;2023-03-31T11:57:37;1.40;;;0.60;;
68910;SDS011;55953;51.650;-0.522;2023-03-31T12:00:17;0.90;;;0.50;;
68910;SDS011;55953;51.650;-0.522;2023-03-31T12:06:11;0.50;;;0.50;;
68910;SDS011;55953;51.650;-0.522;2023-03-31T12:11:58;1.30;;;0.60;;
68910;SDS011;55953;51.650;-0.522;2023-03-31T12:14:38;0.60;;;0.60;;
68910;SDS011;55953;51.650;-0.522;2023-03-31T12:17:12;1.70;;;0.60;;
68910;SDS011;55953;51.650;-0.522;2023-03-31T12:24:54;1.70;;;0.50;;
68910;SDS011;55953;51.650;-0.522;2023-03-31T12:27:38;1.30;;;0.60;;
68910;SDS011;55953;51.650;-0.522;2023-03-31T12:32:53;1.30;;;0.60;;
68910;SDS011;55953;51.650;-0.522;2023-03-31T12:38:32;2.00;;;0.60;;
68910;SDS011;55953;51.650;-0.522;2023-03-31T12:41:19;1.30;;;0.60;;
68910;SDS011;55953;51.650;-0.522;2023-03-31T12:52:54;1.40;;;0.60;;
68910;SDS011;55953;51.650;-0.522;2023-03-31T12:55:34;1.40;;;0.60;;
68910;SDS011;55953;51.650;-0.522;2023-03-31T13:01:01;3.70;;;0.80;;
68910;SDS011;55953;51.650;-0.522;2023-03-31T13:06:02;1.90;;;0.50;;
68910;SDS011;55953;51.650;-0.522;2023-03-31T13:08:55;2.00;;;0.70;;
68910;SDS011;55953;51.650;-0.522;2023-03-31T13:11:37;2.40;;;0.70;;
68910;SDS011;55953;51.650;-0.522;2023-03-31T13:14:21;2.90;;;0.70;;
68910;SDS011;55953;51.650;-0.522;2023-03-31T13:16:52;2.60;;;0.90;;
68910;SDS011;55953;51.650;-0.522;2023-03-31T13:19:39;3.00;;;0.70;;
68910;SDS011;55953;51.650;-0.522;2023-03-31T13:22:28;4.70;;;0.80;;
68910;SDS011;55953;51.650;-0.522;2023-03-31T13:31:04;1.80;;;0.70;;
68910;SDS011;55953;51.650;-0.522;2023-03-31T13:33:53;1.90;;;0.70;;
68910;SDS011;55953;51.650;-0.522;2023-03-31T13:36:40;1.60;;;0.40;;
68910;SDS011;55953;51.650;-0.522;2023-03-31T13:45:42;1.80;;;0.60;;
68910;SDS011;55953;51.650;-0.522;2023-03-31T13:48:46;2.10;;;0.40;;
68910;SDS011;55953;51.650;-0.522;2023-03-31T13:51:28;1.50;;;0.60;;
68910;SDS011;55953;51.650;-0.522;2023-03-31T14:03:04;0.70;;;0.50;;
68910;SDS011;55953;51.650;-0.522;2023-03-31T14:06:02;0.80;;;0.50;;
68910;SDS011;55953;51.650;-0.522;2023-03-31T14:08:49;0.80;;;0.40;;
68910;SDS011;55953;51.650;-0.522;2023-03-31T14:11:29;1.20;;;0.50;;
68910;SDS011;55953;51.650;-0.522;2023-03-31T14:16:27;1.70;;;0.60;;
68910;SDS011;55953;51.650;-0.522;2023-03-31T14:25:35;2.20;;;0.80;;
68910;SDS011;55953;51.650;-0.522;2023-03-31T14:37:12;1.30;;;0.70;;
68910;SDS011;55953;51.650;-0.522;2023-03-31T14:39:49;0.90;;;0.50;;
68910;SDS011;55953;51.650;-0.522;2023-03-31T14:42:24;1.70;;;0.80;;
68910;SDS011;55953;51.650;-0.522;2023-03-31T14:44:57;0.90;;;0.60;;
68910;SDS011;55953;51.650;-0.522;2023-03-31T14:47:30;0.40;;;0.40;;
68910;SDS011;55953;51.650;-0.522;2023-03-31T14:50:16;0.90;;;0.50;;
68910;SDS011;55953;51.650;-0.522;2023-03-31T14:52:50;2.00;;;0.50;;
68910;SDS011;55953;51.650;-0.522;2023-03-31T14:55:22;0.70;;;0.50;;
68910;SDS011;55953;51.650;-0.522;2023-03-31T14:58:02;1.20;;;0.50;;
68910;SDS011;55953;51.650;-0.522;2023-03-31T15:00:31;0.90;;;0.30;;
68910;SDS011;55953;51.650;-0.522;2023-03-31T15:03:01;1.20;;;0.60;;
68910;SDS011;55953;51.650;-0.522;2023-03-31T15:05:36;1.90;;;0.40;;
68910;SDS011;55953;51.650;-0.522;2023-03-31T15:08:09;0.60;;;0.40;;
68910;SDS011;55953;51.650;-0.522;2023-03-31T15:10:44;0.60;;;0.60;;
68910;SDS011;55953;51.650;-0.522;2023-03-31T15:13:42;1.50;;;0.60;;
68910;SDS011;55953;51.650;-0.522;2023-03-31T15:16:32;1.30;;;0.60;;
68910;SDS011;55953;51.650;-0.522;2023-03-31T15:19:11;1.20;;;0.70;;
68910;SDS011;55953;51.650;-0.522;2023-03-31T15:21:53;1.90;;;0.60;;
68910;SDS011;55953;51.650;-0.522;2023-03-31T15:24:23;2.00;;;0.90;;
68910;SDS011;55953;51.650;-0.522;2023-03-31T15:27:01;2.30;;;1.00;;
68910;SDS011;55953;51.650;-0.522;2023-03-31T15:29:46;2.40;;;0.90;;
68910;SDS011;55953;51.650;-0.522;2023-03-31T15:32:30;2.40;;;1.20;;
68910;SDS011;55953;51.650;-0.522;2023-03-31T15:35:03;1.90;;;1.10;;
68910;SDS011;55953;51.650;-0.522;2023-03-31T15:37:39;2.10;;;0.90;;
68910;SDS011;55953;51.650;-0.522;2023-03-31T15:43:03;1.40;;;0.90;;
68910;SDS011;55953;51.650;-0.522;2023-03-31T15:45:54;3.00;;;0.90;;
68910;SDS011;55953;51.650;-0.522;2023-03-31T15:48:31;3.80;;;1.10;;
68910;SDS011;55953;51.650;-0.522;2023-03-31T15:53:46;2.60;;;1.00;;
68910;SDS011;55953;51.650;-0.522;2023-03-31T15:56:27;1.90;;;0.90;;
68910;SDS011;55953;51.650;-0.522;2023-03-31T15:59:20;3.00;;;1.40;;
68910;SDS011;55953;51.650;-0.522;2023-03-31T16:02:12;2.00;;;1.10;;
68910;SDS011;55953;51.650;-0.522;2023-03-31T16:04:47;1.70;;;1.00;;
68910;SDS011;55953;51.650;-0.522;2023-03-31T16:09:58;1.70;;;1.00;;
68910;SDS011;55953;51.650;-0.522;2023-03-31T16:12:37;2.10;;;1.00;;
68910;SDS011;55953;51.650;-0.522;2023-03-31T16:15:19;2.30;;;0.80;;
68910;SDS011;55953;51.650;-0.522;2023-03-31T16:17:59;1.00;;;0.90;;
68910;SDS011;55953;51.650;-0.522;2023-03-31T16:20:44;1.20;;;1.00;;
68910;SDS011;55953;51.650;-0.522;2023-03-31T16:23:22;1.80;;;1.00;;
68910;SDS011;55953;51.650;-0.522;2023-03-31T16:25:53;3.10;;;1.10;;
68910;SDS011;55953;51.650;-0.522;2023-03-31T16:28:25;4.00;;;1.50;;
68910;SDS011;55953;51.650;-0.522;2023-03-31T16:30:55;3.60;;;1.30;;
68910;SDS011;55953;51.650;-0.522;2023-03-31T16:33:29;3.00;;;1.30;;
68910;SDS011;55953;51.650;-0.522;2023-03-31T16:36:01;3.20;;;1.20;;
68910;SDS011;55953;51.650;-0.522;2023-03-31T16:38:29;2.70;;;1.10;;
68910;SDS011;55953;51.650;-0.522;2023-03-31T16:40:57;1.10;;;0.90;;
68910;SDS011;55953;51.650;-0.522;2023-03-31T16:43:28;1.60;;;1.00;;
68910;SDS011;55953;51.650;-0.522;2023-03-31T16:46:01;1.40;;;0.90;;
68910;SDS011;55953;51.650;-0.522;2023-03-31T16:48:30;2.10;;;1.40;;
68910;SDS011;55953;51.650;-0.522;2023-03-31T16:53:33;1.40;;;1.00;;
68910;SDS011;55953;51.650;-0.522;2023-03-31T16:56:04;1.10;;;0.90;;
68910;SDS011;55953;51.650;-0.522;2023-03-31T16:58:37;0.90;;;0.80;;
68910;SDS011;55953;51.650;-0.522;2023-03-31T17:01:07;1.50;;;0.90;;
68910;SDS011;55953;51.650;-0.522;2023-03-31T17:03:35;1.10;;;0.90;;
68910;SDS011;55953;51.650;-0.522;2023-03-31T17:06:08;1.70;;;0.90;;
68910;SDS011;55953;51.650;-0.522;2023-03-31T17:08:38;1.40;;;0.80;;
68910;SDS011;55953;51.650;-0.522;2023-03-31T17:11:09;1.90;;;1.10;;
68910;SDS011;55953;51.650;-0.522;2023-03-31T17:13:41;1.80;;;1.10;;
68910;SDS011;55953;51.650;-0.522;2023-03-31T17:16:11;1.60;;;1.10;;
68910;SDS011;55953;51.650;-0.522;2023-03-31T17:18:56;2.10;;;1.00;;
68910;SDS011;55953;51.650;-0.522;2023-03-31T17:21:24;1.40;;;0.90;;
68910;SDS011;55953;51.650;-0.522;2023-03-31T17:23:52;2.10;;;0.90;;
68910;SDS011;55953;51.650;-0.522;2023-03-31T17:26:21;1.90;;;0.90;;
68910;SDS011;55953;51.650;-0.522;2023-03-31T17:28:50;1.40;;;0.90;;
68910;SDS011;55953;51.650;-0.522;2023-03-31T17:31:20;1.20;;;0.90;;
68910;SDS011;55953;51.650;-0.522;2023-03-31T17:33:48;1.40;;;0.90;;
68910;SDS011;55953;51.650;-0.522;2023-03-31T17:36:16;1.60;;;1.00;;
68910;SDS011;55953;51.650;-0.522;2023-03-31T17:38:44;1.60;;;0.90;;
68910;SDS011;55953;51.650;-0.522;2023-03-31T17:41:12;1.30;;;0.90;;
68910;SDS011;55953;51.650;-0.522;2023-03-31T17:43:44;1.30;;;0.80;;
68910;SDS011;55953;51.650;-0.522;2023-03-31T17:46:13;1.30;;;0.90;;
68910;SDS011;55953;51.650;-0.522;2023-03-31T17:48:42;2.10;;;0.90;;
68910;SDS011;55953;51.650;-0.522;2023-03-31T17:51:15;2.10;;;0.90;;
68910;SDS011;55953;51.650;-0.522;2023-03-31T17:53:46;1.00;;;0.80;;
68910;SDS011;55953;51.650;-0.522;2023-03-31T17:56:15;0.70;;;0.70;;
68910;SDS011;55953;51.650;-0.522;2023-03-31T17:58:45;1.40;;;0.70;;
68910;SDS011;55953;51.650;-0.522;2023-03-31T18:01:13;1.40;;;0.90;;
68910;SDS011;55953;51.650;-0.522;2023-03-31T18:03:42;2.10;;;0.90;;
68910;SDS011;55953;51.650;-0.522;2023-03-31T18:06:13;1.70;;;1.20;;
68910;SDS011;55953;51.650;-0.522;2023-03-31T18:08:41;2.50;;;1.30;;
68910;SDS011;55953;51.650;-0.522;2023-03-31T18:11:10;1.80;;;1.00;;